Time;durP1;ratioP1;P1;durP2;ratioP2;P2;SDS_P1;SDS_P2;PMS_P1;PMS_P2;Temp;Humidity;BMP_temperature;BMP_pressure;BME280_temperature;BME280_humidity;BME280_pressure;Samples;Min_cycle;Max_cycle;Signal;HPM_P1;HPM_P2
2023/07/14 00:01:40;;;;;;;;;;;17.70;99.90;;;;;;7611144;19;19918;-75
2023/07/14 00:04:13;;;;;;;;;;;17.70;99.90;;;;;;7615223;19;20941;-76
2023/07/14 00:06:46;;;;;;;;;;;17.70;99.90;;;;;;7598590;19;19923;-75
2023/07/14 00:09:21;;;;;;;;;;;17.60;99.90;;;;;;7597029;19;19922;-76
2023/07/14 00:11:53;;;;;;;;;;;17.60;99.90;;;;;;7596788;19;19915;-76
2023/07/14 00:14:25;;;;;;;;;;;17.50;99.90;;;;;;7605973;19;20018;-76
2023/07/14 00:16:58;;;;;;;;;;;17.40;99.90;;;;;;7599816;19;20857;-76
2023/07/14 00:19:30;;;;;;;;;;;17.40;99.90;;;;;;7605839;19;19926;-74
2023/07/14 00:22:12;;;;;;;;;;;17.30;99.90;;;;;;7605075;19;19923;-75
2023/07/14 00:24:44;;;;;;;;;;;17.30;99.90;;;;;;7596956;19;19978;-76
2023/07/14 00:27:17;;;;;;;;;;;17.20;99.90;;;;;;7606843;19;19910;-76
2023/07/14 00:29:52;;;;;;;;;;;17.10;99.90;;;;;;7592238;19;20223;-76
2023/07/14 00:32:25;;;;;;;;;;;17.10;99.90;;;;;;7604462;19;19933;-76
2023/07/14 00:34:58;;;;;;;;;;;17.20;99.90;;;;;;7593021;19;19947;-75
2023/07/14 00:37:30;;;;;;;;;;;17.10;99.90;;;;;;7607234;19;19923;-75
2023/07/14 00:40:03;;;;;;;;;;;17.20;99.90;;;;;;7597309;19;20411;-76
2023/07/14 00:42:36;;;;;;;;;;;17.10;99.90;;;;;;7598886;19;20006;-75
2023/07/14 00:45:16;;;;;;;;;;;16.80;99.90;;;;;;7599328;19;19935;-76
2023/07/14 00:47:52;;;;;;;;;;;16.80;99.90;;;;;;7594050;19;20400;-76
2023/07/14 00:50:33;;;;;;;;;;;16.80;99.90;;;;;;7589309;19;20039;-76
2023/07/14 00:53:15;;;;;;;;;;;16.90;99.90;;;;;;7599878;19;20573;-76
2023/07/14 00:55:50;;;;;;;;;;;16.90;99.90;;;;;;7597896;19;19923;-76
2023/07/14 00:58:23;;;;;;;;;;;16.90;99.90;;;;;;7600809;19;19927;-76
2023/07/14 01:01:02;;;;;;;;;;;16.90;99.90;;;;;;7598784;19;19919;-76
2023/07/14 01:03:39;;;;;;;;;;;16.90;99.90;;;;;;7599344;19;19954;-75
2023/07/14 01:06:17;;;;;;;;;;;16.90;99.90;;;;;;7611068;19;19978;-76
2023/07/14 01:08:55;;;;;;;;;;;16.80;99.90;;;;;;7595472;19;20277;-76
2023/07/14 01:11:48;;;;;;;;;;;16.80;99.90;;;;;;7603638;19;20017;-75
2023/07/14 01:14:28;;;;;;;;;;;16.70;99.90;;;;;;7603454;19;20002;-76
2023/07/14 01:17:01;;;;;;;;;;;16.70;99.90;;;;;;7599583;19;20816;-76
2023/07/14 01:19:36;;;;;;;;;;;16.60;99.90;;;;;;7605073;19;20387;-76
2023/07/14 01:22:20;;;;;;;;;;;16.60;99.90;;;;;;7603010;19;19942;-75
2023/07/14 01:24:58;;;;;;;;;;;16.50;99.90;;;;;;7598474;19;20414;-75
2023/07/14 01:27:31;;;;;;;;;;;16.50;99.90;;;;;;7602967;19;20523;-76
2023/07/14 01:30:03;;;;;;;;;;;16.40;99.90;;;;;;7598054;19;20345;-76
2023/07/14 01:32:36;;;;;;;;;;;16.30;99.90;;;;;;7603985;19;19919;-75
2023/07/14 01:35:09;;;;;;;;;;;16.20;99.90;;;;;;7605948;19;19926;-76
2023/07/14 01:37:42;;;;;;;;;;;16.10;99.90;;;;;;7597260;19;20352;-75
2023/07/14 01:40:17;;;;;;;;;;;16.10;99.90;;;;;;7600192;19;20306;-75
2023/07/14 01:42:53;;;;;;;;;;;16.10;99.90;;;;;;7599254;19;19915;-75
2023/07/14 01:45:31;;;;;;;;;;;16.10;99.90;;;;;;7604439;19;21157;-76
2023/07/14 01:48:04;;;;;;;;;;;16.00;99.90;;;;;;7592003;19;19942;-75
2023/07/14 01:50:40;;;;;;;;;;;16.00;99.90;;;;;;7598179;19;19923;-75
2023/07/14 01:53:17;;;;;;;;;;;15.90;99.90;;;;;;7598790;19;19927;-75
2023/07/14 01:55:51;;;;;;;;;;;15.90;99.90;;;;;;7595089;19;19953;-75
2023/07/14 01:58:27;;;;;;;;;;;15.90;99.90;;;;;;7596716;19;21095;-76
2023/07/14 02:01:00;;;;;;;;;;;15.90;99.90;;;;;;7592299;19;19915;-75
2023/07/14 02:03:37;;;;;;;;;;;15.90;99.90;;;;;;7599837;19;19927;-76
2023/07/14 02:06:10;;;;;;;;;;;15.80;99.90;;;;;;7598182;19;19926;-75
2023/07/14 02:08:45;;;;;;;;;;;15.80;99.90;;;;;;7595314;19;19929;-75
2023/07/14 02:11:18;;;;;;;;;;;15.70;99.90;;;;;;7578731;19;19964;-75
2023/07/14 02:13:51;;;;;;;;;;;15.70;99.90;;;;;;7586988;19;19923;-76
2023/07/14 02:16:24;;;;;;;;;;;15.70;99.90;;;;;;7596051;19;19930;-76
2023/07/14 02:18:56;;;;;;;;;;;15.70;99.90;;;;;;7598938;19;19922;-74
2023/07/14 02:21:29;;;;;;;;;;;15.80;99.90;;;;;;7600660;19;19941;-74
2023/07/14 02:24:02;;;;;;;;;;;15.70;99.90;;;;;;7592801;19;19922;-75
2023/07/14 02:26:37;;;;;;;;;;;15.60;99.90;;;;;;7601060;19;20010;-75
2023/07/14 02:29:10;;;;;;;;;;;15.60;99.90;;;;;;7596171;19;19923;-76
2023/07/14 02:31:50;;;;;;;;;;;15.50;99.90;;;;;;7593653;19;19933;-76
2023/07/14 02:34:23;;;;;;;;;;;15.40;99.90;;;;;;7595890;19;19919;-75
2023/07/14 02:36:57;;;;;;;;;;;15.40;99.90;;;;;;7599197;19;19956;-75
2023/07/14 02:39:33;;;;;;;;;;;15.40;99.90;;;;;;7599376;19;20480;-75
2023/07/14 02:42:05;;;;;;;;;;;15.40;99.90;;;;;;7603183;19;19994;-75
2023/07/14 02:44:38;;;;;;;;;;;15.30;99.90;;;;;;7607121;19;20258;-76
2023/07/14 02:47:12;;;;;;;;;;;15.40;99.90;;;;;;7598761;19;20411;-75
2023/07/14 02:49:48;;;;;;;;;;;15.40;99.90;;;;;;7602943;19;19919;-75
2023/07/14 02:52:20;;;;;;;;;;;15.30;99.90;;;;;;7599729;19;20620;-74
2023/07/14 02:54:53;;;;;;;;;;;15.30;99.90;;;;;;7605744;19;19926;-75
2023/07/14 02:57:25;;;;;;;;;;;15.30;99.90;;;;;;7597203;19;19927;-74
2023/07/14 02:59:57;;;;;;;;;;;15.30;99.90;;;;;;7604198;19;19926;-74
2023/07/14 03:02:29;;;;;;;;;;;15.30;99.90;;;;;;7603914;19;19919;-74
2023/07/14 03:05:01;;;;;;;;;;;15.40;99.90;;;;;;7608790;19;20380;-74
2023/07/14 03:07:35;;;;;;;;;;;15.30;99.90;;;;;;7605653;19;19925;-74
2023/07/14 03:10:08;;;;;;;;;;;15.30;99.90;;;;;;7602111;19;20559;-74
2023/07/14 03:12:40;;;;;;;;;;;15.30;99.90;;;;;;7597372;19;20020;-74
2023/07/14 03:15:16;;;;;;;;;;;15.30;99.90;;;;;;7601816;19;19911;-75
2023/07/14 03:17:49;;;;;;;;;;;15.20;99.90;;;;;;7600491;19;19930;-75
2023/07/14 03:20:22;;;;;;;;;;;15.20;99.90;;;;;;7600573;19;19923;-75
2023/07/14 03:22:54;;;;;;;;;;;15.20;99.90;;;;;;7602450;19;19919;-74
2023/07/14 03:25:26;;;;;;;;;;;15.20;99.90;;;;;;7591217;19;21262;-75
2023/07/14 03:28:01;;;;;;;;;;;15.10;99.90;;;;;;7604876;19;19947;-74
2023/07/14 03:30:37;;;;;;;;;;;15.10;99.90;;;;;;7601337;19;19923;-75
2023/07/14 03:33:10;;;;;;;;;;;15.00;99.90;;;;;;7600166;19;19954;-74
2023/07/14 03:35:42;;;;;;;;;;;15.00;99.90;;;;;;7602222;19;19948;-75
2023/07/14 03:38:15;;;;;;;;;;;15.00;99.90;;;;;;7595145;19;19934;-74
2023/07/14 03:40:47;;;;;;;;;;;15.00;99.90;;;;;;7596676;19;20285;-73
2023/07/14 03:43:19;;;;;;;;;;;15.00;99.90;;;;;;7600780;19;19923;-74
2023/07/14 03:45:51;;;;;;;;;;;14.90;99.90;;;;;;7599001;19;19926;-75
2023/07/14 03:48:24;;;;;;;;;;;15.00;99.90;;;;;;7600619;19;19939;-74
2023/07/14 03:51:03;;;;;;;;;;;15.00;99.90;;;;;;7599381;19;20750;-75
2023/07/14 03:53:36;;;;;;;;;;;15.10;99.90;;;;;;7598376;19;20030;-74
2023/07/14 03:56:08;;;;;;;;;;;15.10;99.90;;;;;;7600897;19;20626;-75
2023/07/14 03:58:43;;;;;;;;;;;15.10;99.90;;;;;;7599818;19;20006;-75
2023/07/14 04:01:15;;;;;;;;;;;15.10;99.90;;;;;;7596879;19;19922;-74
2023/07/14 04:03:48;;;;;;;;;;;15.10;99.90;;;;;;7599958;19;19961;-75
2023/07/14 04:06:20;;;;;;;;;;;15.00;99.90;;;;;;7602613;19;20850;-74
2023/07/14 04:08:55;;;;;;;;;;;15.00;99.90;;;;;;7598588;19;19923;-74
2023/07/14 04:11:27;;;;;;;;;;;15.10;99.90;;;;;;7601406;19;19929;-74
2023/07/14 04:14:00;;;;;;;;;;;15.20;99.90;;;;;;7606310;19;19929;-74
2023/07/14 04:16:35;;;;;;;;;;;15.20;99.90;;;;;;7600083;19;19981;-75
2023/07/14 04:19:07;;;;;;;;;;;15.30;99.90;;;;;;7604361;19;21032;-74
2023/07/14 04:21:39;;;;;;;;;;;15.30;99.90;;;;;;7598949;19;19919;-75
2023/07/14 04:24:12;;;;;;;;;;;15.40;99.90;;;;;;7598673;19;19922;-74
2023/07/14 04:26:44;;;;;;;;;;;15.40;99.90;;;;;;7600471;19;19929;-75
2023/07/14 04:29:16;;;;;;;;;;;15.60;99.90;;;;;;7593545;19;19954;-74
2023/07/14 04:31:48;;;;;;;;;;;15.60;99.90;;;;;;7603733;19;19934;-75
2023/07/14 04:34:22;;;;;;;;;;;15.60;99.90;;;;;;7600548;19;19919;-74
2023/07/14 04:36:54;;;;;;;;;;;15.40;99.90;;;;;;7560423;19;19923;-75
2023/07/14 04:39:26;;;;;;;;;;;15.50;99.90;;;;;;7568542;19;19960;-75
2023/07/14 04:41:58;;;;;;;;;;;15.50;99.90;;;;;;7580434;19;20002;-74
2023/07/14 04:44:30;;;;;;;;;;;15.50;99.90;;;;;;7596653;19;19934;-75
2023/07/14 04:47:03;;;;;;;;;;;15.70;99.90;;;;;;7586048;19;19923;-75
2023/07/14 04:49:35;;;;;;;;;;;15.80;99.90;;;;;;7596062;19;20408;-74
2023/07/14 04:52:07;;;;;;;;;;;15.90;99.90;;;;;;7584862;19;20777;-74
2023/07/14 04:54:40;;;;;;;;;;;15.80;99.90;;;;;;7597110;19;19927;-73
2023/07/14 04:57:13;;;;;;;;;;;15.90;99.90;;;;;;7580986;19;20504;-74
2023/07/14 04:59:45;;;;;;;;;;;;;;;;;;7562483;19;19918;-74
2023/07/14 05:02:18;;;;;;;;;;;;;;;;;;7587545;19;20821;-75
2023/07/14 05:04:50;;;;;;;;;;;;;;;;;;7593026;19;19927;-74
2023/07/14 05:07:32;;;;;;;;;;;;;;;;;;7596135;19;20502;-75
2023/07/14 05:10:04;;;;;;;;;;;;;;;;;;7582629;19;19922;-74
2023/07/14 05:12:37;;;;;;;;;;;;;;;;;;7581974;19;20582;-74
2023/07/14 05:15:10;;;;;;;;;;;;;;;;;;7586994;19;19922;-73
2023/07/14 05:17:43;;;;;;;;;;;;;;;;;;7595358;19;19923;-73
2023/07/14 05:20:15;;;;;;;;;;;;;;;;;;7584871;19;19927;-73
2023/07/14 05:22:48;;;;;;;;;;;;;;;;;;7582051;19;19934;-73
2023/07/14 05:25:20;;;;;;;;;;;;;;;;;;7588703;19;19923;-74
2023/07/14 05:27:53;;;;;;;;;;;;;;;;;;7588917;19;19927;-73
2023/07/14 05:30:26;;;;;;;;;;;;;;;;;;7586972;19;19939;-73
2023/07/14 05:32:58;;;;;;;;;;;;;;;;;;7590218;19;19922;-74
2023/07/14 05:35:31;;;;;;;;;;;;;;;;;;7598550;19;19918;-75
2023/07/14 05:38:03;;;;;;;;;;;;;;;;;;7592152;19;21046;-74
2023/07/14 05:40:36;;;;;;;;;;;;;;;;;;7589975;19;20292;-74
2023/07/14 05:43:22;;;;;;;;;;;;;;;;;;7582019;19;20016;-74
2023/07/14 05:45:55;;;;;;;;;;;;;;;;;;7561749;19;19918;-73
2023/07/14 05:48:27;;;;;;;;;;;;;;;;;;7587524;19;19923;-74
2023/07/14 05:51:00;;;;;;;;;;;15.90;99.90;;;;;;7587493;19;20018;-73
2023/07/14 05:53:33;;;;;;;;;;;17.60;99.90;;;;;;7599241;19;19923;-73
2023/07/14 05:56:05;;;;;;;;;;;17.60;99.90;;;;;;7590905;19;20809;-74
2023/07/14 05:58:37;;;;;;;;;;;17.60;99.90;;;;;;7603294;19;19919;-74
2023/07/14 06:01:09;;;;;;;;;;;17.70;99.90;;;;;;7586323;19;19933;-73
2023/07/14 06:03:42;;;;;;;;;;;17.80;99.90;;;;;;7599526;19;19925;-75
2023/07/14 06:06:14;;;;;;;;;;;17.90;99.90;;;;;;7592311;19;19918;-74
2023/07/14 06:08:49;;;;;;;;;;;17.90;99.90;;;;;;7589731;19;20109;-74
2023/07/14 06:11:22;;;;;;;;;;;18.00;99.90;;;;;;7594161;19;20383;-75
2023/07/14 06:13:54;;;;;;;;;;;18.20;99.90;;;;;;7592267;19;20472;-73
2023/07/14 06:16:26;;;;;;;;;;;18.20;99.90;;;;;;7538575;19;19949;-73
2023/07/14 06:18:59;;;;;;;;;;;18.30;99.90;;;;;;7575778;19;19918;-74
2023/07/14 06:21:31;;;;;;;;;;;18.40;99.90;;;;;;7589905;19;19927;-74
2023/07/14 06:24:07;;;;;;;;;;;18.60;99.90;;;;;;7566780;19;20543;-74
2023/07/14 06:26:39;;;;;;;;;;;18.70;99.90;;;;;;7573064;19;20002;-74
2023/07/14 06:29:12;;;;;;;;;;;18.70;99.90;;;;;;7569278;19;19922;-74
2023/07/14 06:31:44;;;;;;;;;;;18.80;99.90;;;;;;7575651;19;19922;-75
2023/07/14 06:34:16;;;;;;;;;;;18.80;99.90;;;;;;7576701;19;19906;-74
2023/07/14 06:36:49;;;;;;;;;;;19.00;99.90;;;;;;7596500;19;19918;-74
2023/07/14 06:39:21;;;;;;;;;;;19.30;99.90;;;;;;7575761;19;19925;-75
2023/07/14 06:41:53;;;;;;;;;;;19.40;99.90;;;;;;7599788;19;19926;-74
2023/07/14 06:44:29;;;;;;;;;;;19.60;99.90;;;;;;7589961;19;19927;-74
2023/07/14 06:47:02;;;;;;;;;;;19.70;99.90;;;;;;7584251;19;19922;-74
2023/07/14 06:49:34;;;;;;;;;;;19.70;99.90;;;;;;7594597;19;19919;-75
2023/07/14 06:52:07;;;;;;;;;;;19.90;99.90;;;;;;7595656;19;19923;-74
2023/07/14 06:54:40;;;;;;;;;;;20.00;99.90;;;;;;7593599;19;19933;-75
2023/07/14 06:57:13;;;;;;;;;;;20.20;99.90;;;;;;7576057;19;20906;-73
2023/07/14 06:59:46;;;;;;;;;;;20.20;99.90;;;;;;7571677;19;19925;-74
2023/07/14 07:02:18;;;;;;;;;;;20.30;99.90;;;;;;7581565;19;20624;-74
2023/07/14 07:04:50;;;;;;;;;;;20.50;99.90;;;;;;7560498;19;20519;-74
2023/07/14 07:07:23;;;;;;;;;;;20.60;99.90;;;;;;7570972;19;20773;-74
2023/07/14 07:09:56;;;;;;;;;;;20.70;99.90;;;;;;7065387;19;10000428;-75
2023/07/14 07:12:29;;;;;;;;;;;20.80;99.90;;;;;;7560390;19;19919;-75
2023/07/14 07:15:02;;;;;;;;;;;20.90;99.90;;;;;;7590346;19;19943;-75
2023/07/14 07:17:34;;;;;;;;;;;21.00;99.90;;;;;;7584861;19;19919;-75
2023/07/14 07:20:07;;;;;;;;;;;21.10;99.90;;;;;;7563634;19;19919;-74
2023/07/14 07:22:40;;;;;;;;;;;21.20;99.90;;;;;;7565863;19;19921;-75
2023/07/14 07:25:12;;;;;;;;;;;21.30;99.90;;;;;;7564952;19;19923;-74
2023/07/14 07:27:44;;;;;;;;;;;21.40;99.90;;;;;;7581415;19;19946;-75
2023/07/14 07:30:17;;;;;;;;;;;21.50;99.90;;;;;;7569196;19;19915;-75
2023/07/14 07:32:49;;;;;;;;;;;21.60;99.90;;;;;;7566151;19;19923;-75
2023/07/14 07:35:22;;;;;;;;;;;21.70;99.90;;;;;;7570993;19;19923;-75
2023/07/14 07:37:54;;;;;;;;;;;21.70;99.90;;;;;;7579043;19;20360;-74
2023/07/14 07:40:26;;;;;;;;;;;21.90;99.90;;;;;;7582879;19;19960;-75
2023/07/14 07:43:00;;;;;;;;;;;22.10;99.90;;;;;;7562154;19;19935;-75
2023/07/14 07:45:32;;;;;;;;;;;22.20;99.90;;;;;;7564119;19;19923;-75
2023/07/14 07:48:05;;;;;;;;;;;22.40;99.90;;;;;;7546843;19;20330;-75
2023/07/14 07:50:37;;;;;;;;;;;22.40;99.90;;;;;;7560536;19;19918;-75
2023/07/14 07:53:10;;;;;;;;;;;22.50;99.90;;;;;;7564977;19;19935;-74
2023/07/14 07:55:50;;;;;;;;;;;22.60;99.90;;;;;;7596004;19;19923;-74
2023/07/14 07:58:26;;;;;;;;;;;22.80;99.90;;;;;;7583655;19;19930;-75
2023/07/14 08:00:59;;;;;;;;;;;22.90;99.90;;;;;;7585083;19;19927;-74
2023/07/14 08:03:33;;;;;;;;;;;23.10;99.90;;;;;;7592854;19;19919;-74
2023/07/14 08:06:05;;;;;;;;;;;23.10;99.90;;;;;;7585076;19;19954;-74
2023/07/14 08:08:38;;;;;;;;;;;23.20;99.90;;;;;;7577655;19;20899;-74
2023/07/14 08:11:11;;;;;;;;;;;23.10;99.90;;;;;;7593560;19;19949;-75
2023/07/14 08:13:44;;;;;;;;;;;23.00;99.90;;;;;;7588384;19;19934;-75
2023/07/14 08:16:17;;;;;;;;;;;23.00;99.90;;;;;;7593096;19;19930;-75
2023/07/14 08:18:49;;;;;;;;;;;22.90;99.90;;;;;;7583057;19;19923;-74
2023/07/14 08:21:22;;;;;;;;;;;23.00;99.90;;;;;;7565373;19;19938;-75
2023/07/14 08:23:54;;;;;;;;;;;23.10;99.90;;;;;;7594963;19;19990;-74
2023/07/14 08:26:27;;;;;;;;;;;23.30;99.90;;;;;;7596131;19;19923;-75
2023/07/14 08:28:59;;;;;;;;;;;23.40;99.70;;;;;;7592438;19;19990;-74
2023/07/14 08:31:32;;;;;;;;;;;23.40;99.40;;;;;;7589227;19;19922;-74
2023/07/14 08:34:04;;;;;;;;;;;23.40;99.00;;;;;;7600001;19;19915;-75
2023/07/14 08:36:36;;;;;;;;;;;23.70;97.80;;;;;;7577937;19;19955;-75
2023/07/14 08:39:08;;;;;;;;;;;23.80;98.10;;;;;;7577806;19;19923;-74
2023/07/14 08:41:41;;;;;;;;;;;23.90;97.20;;;;;;7577335;19;19923;-76
2023/07/14 08:44:22;;;;;;;;;;;24.10;97.40;;;;;;7597102;19;20448;-74
2023/07/14 08:46:57;;;;;;;;;;;24.30;96.40;;;;;;7597635;19;19922;-74
2023/07/14 08:49:29;;;;;;;;;;;24.00;96.70;;;;;;7594534;19;19937;-74
2023/07/14 08:52:03;;;;;;;;;;;24.00;96.80;;;;;;7599940;19;20387;-75
2023/07/14 08:54:42;;;;;;;;;;;24.00;96.50;;;;;;7582161;19;19922;-74
2023/07/14 08:57:20;;;;;;;;;;;24.00;96.10;;;;;;7597709;19;20917;-74
2023/07/14 08:59:57;;;;;;;;;;;24.00;96.00;;;;;;7587213;19;20449;-74
2023/07/14 09:02:35;;;;;;;;;;;23.90;94.20;;;;;;7576411;19;19954;-75
2023/07/14 09:05:18;;;;;;;;;;;23.80;95.20;;;;;;7598131;19;19926;-75
2023/07/14 09:07:51;;;;;;;;;;;23.90;95.60;;;;;;7590730;19;19929;-75
2023/07/14 09:10:33;;;;;;;;;;;23.90;95.40;;;;;;7589944;19;19937;-75
2023/07/14 09:13:09;;;;;;;;;;;24.00;93.50;;;;;;7576596;19;20308;-75
2023/07/14 09:15:42;;;;;;;;;;;23.90;94.50;;;;;;7586705;19;19915;-75
2023/07/14 09:18:14;;;;;;;;;;;24.00;94.50;;;;;;7584668;19;19930;-73
2023/07/14 09:21:03;;;;;;;;;;;24.10;94.20;;;;;;7592595;19;20857;-75
2023/07/14 09:23:54;;;;;;;;;;;24.20;91.50;;;;;;7593187;19;19930;-75
2023/07/14 09:26:35;;;;;;;;;;;24.20;92.20;;;;;;7595624;19;20847;-75
2023/07/14 09:29:10;;;;;;;;;;;24.30;92.90;;;;;;7595877;19;19926;-74
2023/07/14 09:31:47;;;;;;;;;;;24.40;91.40;;;;;;7593757;19;19922;-74
2023/07/14 09:34:23;;;;;;;;;;;24.40;92.30;;;;;;7596248;19;19922;-74
2023/07/14 09:36:56;;;;;;;;;;;24.50;92.30;;;;;;7599247;19;19914;-75
2023/07/14 09:39:41;;;;;;;;;;;24.50;92.50;;;;;;7593364;19;19919;-74
2023/07/14 09:42:21;;;;;;;;;;;24.60;92.90;;;;;;7596839;19;19911;-75
2023/07/14 09:44:58;;;;;;;;;;;24.70;92.80;;;;;;7590540;19;19933;-75
2023/07/14 09:47:31;;;;;;;;;;;24.80;91.40;;;;;;6576393;19;10000274;-75
2023/07/14 09:50:04;;;;;;;;;;;24.70;92.00;;;;;;7593975;19;19929;-74
2023/07/14 09:52:47;;;;;;;;;;;24.70;91.30;;;;;;7590062;19;19922;-75
2023/07/14 09:55:19;;;;;;;;;;;24.60;90.90;;;;;;7592426;19;19929;-73
2023/07/14 09:57:55;;;;;;;;;;;24.60;90.20;;;;;;7595841;19;19915;-75
2023/07/14 10:00:42;;;;;;;;;;;24.70;91.50;;;;;;7586971;19;20539;-75
2023/07/14 10:03:17;;;;;;;;;;;24.80;91.70;;;;;;7575031;19;19933;-75
2023/07/14 10:06:11;;;;;;;;;;;24.90;90.40;;;;;;7598586;19;19923;-75
2023/07/14 10:08:44;;;;;;;;;;;25.20;90.20;;;;;;7592578;19;19915;-74
2023/07/14 10:11:16;;;;;;;;;;;25.20;89.70;;;;;;7586761;19;19939;-74
2023/07/14 10:13:54;;;;;;;;;;;25.30;89.80;;;;;;7588482;19;19961;-74
2023/07/14 10:16:28;;;;;;;;;;;25.30;88.60;;;;;;7587013;19;19927;-74
2023/07/14 10:19:18;;;;;;;;;;;25.50;83.30;;;;;;7588387;19;19931;-74
2023/07/14 10:21:51;;;;;;;;;;;25.60;86.60;;;;;;7585985;19;19915;-75
2023/07/14 10:24:24;;;;;;;;;;;25.70;86.80;;;;;;7581389;19;19919;-73
2023/07/14 10:26:57;;;;;;;;;;;26.00;86.20;;;;;;7586171;19;20507;-73
2023/07/14 10:29:46;;;;;;;;;;;26.30;84.20;;;;;;7588767;19;19946;-75
2023/07/14 10:32:25;;;;;;;;;;;26.80;84.20;;;;;;7583935;19;20301;-74
2023/07/14 10:34:59;;;;;;;;;;;27.00;80.60;;;;;;7573943;19;20888;-73
2023/07/14 10:37:35;;;;;;;;;;;27.20;79.50;;;;;;7575635;19;19962;-74
2023/07/14 10:40:14;;;;;;;;;;;27.30;76.60;;;;;;7577958;19;19978;-75
2023/07/14 10:43:05;;;;;;;;;;;27.40;77.20;;;;;;7590666;19;19919;-74
2023/07/14 10:45:38;;;;;;;;;;;27.70;76.90;;;;;;7575483;19;21358;-74
2023/07/14 10:48:16;;;;;;;;;;;27.90;76.20;;;;;;7585083;19;21347;-73
2023/07/14 10:50:52;;;;;;;;;;;28.10;75.70;;;;;;7593980;19;19943;-75
2023/07/14 10:53:28;;;;;;;;;;;28.10;74.10;;;;;;7593810;19;19927;-74
2023/07/14 10:56:02;;;;;;;;;;;28.00;73.00;;;;;;7594421;19;19915;-74
2023/07/14 10:58:37;;;;;;;;;;;27.80;73.60;;;;;;7593886;19;20330;-74
2023/07/14 11:01:18;;;;;;;;;;;27.70;73.70;;;;;;7601558;19;20319;-75
2023/07/14 11:03:53;;;;;;;;;;;27.90;72.20;;;;;;7600301;19;20455;-75
2023/07/14 11:06:30;;;;;;;;;;;28.20;71.00;;;;;;7587198;19;19933;-74
2023/07/14 11:09:10;;;;;;;;;;;28.40;72.20;;;;;;7577840;19;20735;-74
2023/07/14 11:11:58;;;;;;;;;;;28.60;74.00;;;;;;7588656;19;20541;-75
2023/07/14 11:14:41;;;;;;;;;;;29.00;69.60;;;;;;7544186;19;20718;-73
2023/07/14 11:17:26;;;;;;;;;;;29.20;69.70;;;;;;7572676;19;19919;-75
2023/07/14 11:19:58;;;;;;;;;;;29.00;65.80;;;;;;7592787;19;19991;-75
2023/07/14 11:22:33;;;;;;;;;;;29.00;65.50;;;;;;7577043;19;19929;-73
2023/07/14 11:25:18;;;;;;;;;;;29.00;66.80;;;;;;7583590;19;20361;-75
2023/07/14 11:27:57;;;;;;;;;;;29.00;67.70;;;;;;7579461;19;19933;-75
2023/07/14 11:30:33;;;;;;;;;;;29.10;65.70;;;;;;7589628;19;20323;-75
2023/07/14 11:33:11;;;;;;;;;;;29.40;64.40;;;;;;7595387;19;19930;-74
2023/07/14 11:36:01;;;;;;;;;;;29.50;64.30;;;;;;7585478;19;19954;-74
2023/07/14 11:39:06;;;;;;;;;;;29.40;63.30;;;;;;7572444;19;19927;-75
2023/07/14 11:41:38;;;;;;;;;;;29.80;63.60;;;;;;7592526;19;20298;-74
2023/07/14 11:44:13;;;;;;;;;;;30.10;62.10;;;;;;7603594;19;20665;-74
2023/07/14 11:46:46;;;;;;;;;;;30.30;61.30;;;;;;7596747;19;19937;-75
2023/07/14 11:49:37;;;;;;;;;;;30.40;60.40;;;;;;7606715;19;19974;-75
2023/07/14 11:52:10;;;;;;;;;;;30.40;60.40;;;;;;7604028;19;19930;-74
2023/07/14 11:54:55;;;;;;;;;;;30.60;60.20;;;;;;7583497;19;19929;-74
2023/07/14 11:57:28;;;;;;;;;;;31.00;61.10;;;;;;7582663;19;19919;-76
2023/07/14 12:00:05;;;;;;;;;;;31.00;59.10;;;;;;7601361;19;20001;-74
2023/07/14 12:02:42;;;;;;;;;;;31.00;58.70;;;;;;7606393;19;20511;-75
2023/07/14 12:05:15;;;;;;;;;;;31.10;58.90;;;;;;7603012;19;20786;-75
2023/07/14 12:08:07;;;;;;;;;;;30.80;59.20;;;;;;7596858;19;19998;-75
2023/07/14 12:10:39;;;;;;;;;;;30.70;59.70;;;;;;7593554;19;20536;-75
2023/07/14 12:13:22;;;;;;;;;;;30.40;60.40;;;;;;7599270;19;19919;-74
2023/07/14 12:15:54;;;;;;;;;;;30.40;60.60;;;;;;7591039;19;19915;-75
2023/07/14 12:18:34;;;;;;;;;;;30.30;60.40;;;;;;7569001;19;19933;-74
2023/07/14 12:21:16;;;;;;;;;;;29.90;59.70;;;;;;7597183;19;20714;-75
2023/07/14 12:23:51;;;;;;;;;;;29.80;61.20;;;;;;7589861;19;20221;-75
2023/07/14 12:26:23;;;;;;;;;;;29.50;60.00;;;;;;7584750;19;19963;-75
2023/07/14 12:28:55;;;;;;;;;;;29.50;60.90;;;;;;7599937;19;20426;-75
2023/07/14 12:31:33;;;;;;;;;;;29.40;61.40;;;;;;7592330;19;19922;-74
2023/07/14 12:34:05;;;;;;;;;;;29.30;62.10;;;;;;7588412;19;19921;-76
2023/07/14 12:36:40;;;;;;;;;;;29.40;61.80;;;;;;7575730;19;20345;-75
2023/07/14 12:39:12;;;;;;;;;;;29.50;61.80;;;;;;7592610;19;21902;-74
2023/07/14 12:41:49;;;;;;;;;;;29.70;61.90;;;;;;7589580;19;20812;-74
2023/07/14 12:44:24;;;;;;;;;;;29.70;61.40;;;;;;7593557;19;19914;-75
2023/07/14 12:46:56;;;;;;;;;;;29.90;61.30;;;;;;7582801;19;20376;-74
2023/07/14 12:49:29;;;;;;;;;;;30.10;61.50;;;;;;7600220;19;19931;-75
2023/07/14 12:52:12;;;;;;;;;;;30.10;60.40;;;;;;7584165;19;19922;-75
2023/07/14 12:54:46;;;;;;;;;;;30.40;60.10;;;;;;7596808;19;19947;-75
2023/07/14 12:57:18;;;;;;;;;;;30.30;58.90;;;;;;7599370;19;19915;-75
2023/07/14 12:59:51;;;;;;;;;;;30.30;58.10;;;;;;7585938;19;19923;-75
2023/07/14 13:02:24;;;;;;;;;;;30.50;58.00;;;;;;7589593;19;19923;-74
2023/07/14 13:04:56;;;;;;;;;;;30.70;57.40;;;;;;7578310;19;20261;-75
2023/07/14 13:07:30;;;;;;;;;;;30.70;56.70;;;;;;7599111;19;19968;-74
2023/07/14 13:10:09;;;;;;;;;;;31.00;56.70;;;;;;7583258;19;20591;-76
2023/07/14 13:12:42;;;;;;;;;;;31.00;58.00;;;;;;7590253;19;19927;-75
2023/07/14 13:15:18;;;;;;;;;;;31.00;56.20;;;;;;7591668;19;19939;-75
2023/07/14 13:17:50;;;;;;;;;;;31.50;57.00;;;;;;7589847;19;19938;-75
2023/07/14 13:20:24;;;;;;;;;;;31.60;55.90;;;;;;7596392;19;19942;-75
2023/07/14 13:23:15;;;;;;;;;;;32.00;53.60;;;;;;7577557;19;19964;-75
2023/07/14 13:26:05;;;;;;;;;;;32.00;53.90;;;;;;7581764;19;20003;-75
2023/07/14 13:28:53;;;;;;;;;;;32.40;54.80;;;;;;7592978;19;19926;-75
2023/07/14 13:31:28;;;;;;;;;;;32.30;54.50;;;;;;7589690;19;19922;-74
2023/07/14 13:34:06;;;;;;;;;;;32.50;54.30;;;;;;7570883;19;19983;-74
2023/07/14 13:36:38;;;;;;;;;;;32.60;54.30;;;;;;7579794;19;19922;-75
2023/07/14 13:39:18;;;;;;;;;;;32.90;53.30;;;;;;7571417;19;20010;-74
2023/07/14 13:41:54;;;;;;;;;;;32.30;53.40;;;;;;7579248;19;20649;-75
2023/07/14 13:44:27;;;;;;;;;;;31.80;53.10;;;;;;7565548;19;20313;-75
2023/07/14 13:47:10;;;;;;;;;;;31.30;54.40;;;;;;7558448;19;19934;-74
2023/07/14 13:49:42;;;;;;;;;;;31.60;54.50;;;;;;7578831;19;20899;-74
2023/07/14 13:52:16;;;;;;;;;;;31.70;54.80;;;;;;7573011;19;20041;-74
2023/07/14 13:54:53;;;;;;;;;;;31.80;56.80;;;;;;7544859;19;19919;-74
2023/07/14 13:57:25;;;;;;;;;;;31.60;54.30;;;;;;7595867;19;20444;-75
2023/07/14 13:59:57;;;;;;;;;;;31.20;55.50;;;;;;7586466;19;20260;-75
2023/07/14 14:02:37;;;;;;;;;;;30.90;55.30;;;;;;7595215;19;19919;-75
2023/07/14 14:05:19;;;;;;;;;;;30.60;55.20;;;;;;7576773;19;19918;-74
2023/07/14 14:07:52;;;;;;;;;;;30.70;55.60;;;;;;7558801;19;19926;-74
2023/07/14 14:10:27;;;;;;;;;;;31.20;56.60;;;;;;7551155;19;20514;-75
2023/07/14 14:13:00;;;;;;;;;;;31.70;55.70;;;;;;7556699;19;20022;-75
2023/07/14 14:15:35;;;;;;;;;;;31.80;54.10;;;;;;7580269;19;19925;-75
2023/07/14 14:18:12;;;;;;;;;;;31.40;55.30;;;;;;7572701;19;19942;-75
2023/07/14 14:20:45;;;;;;;;;;;31.20;55.60;;;;;;7557149;19;19967;-74
2023/07/14 14:23:18;;;;;;;;;;;31.20;54.50;;;;;;7560686;19;19943;-75
2023/07/14 14:25:51;;;;;;;;;;;31.40;56.00;;;;;;7576417;19;20002;-74
2023/07/14 14:28:23;;;;;;;;;;;31.10;55.00;;;;;;7571235;19;19966;-75
2023/07/14 14:30:57;;;;;;;;;;;30.80;55.60;;;;;;7551000;19;19918;-75
2023/07/14 14:33:30;;;;;;;;;;;30.70;55.60;;;;;;7584858;19;19951;-73
2023/07/14 14:36:02;;;;;;;;;;;30.60;56.30;;;;;;7540492;19;20350;-73
2023/07/14 14:38:35;;;;;;;;;;;30.60;55.80;;;;;;7571232;19;19915;-74
2023/07/14 14:41:29;;;;;;;;;;;30.50;56.40;;;;;;7561218;19;20794;-75
2023/07/14 14:44:05;;;;;;;;;;;30.50;55.70;;;;;;7584815;19;19922;-74
2023/07/14 14:46:38;;;;;;;;;;;30.30;56.00;;;;;;7555267;19;19918;-75
2023/07/14 14:49:12;;;;;;;;;;;30.10;56.90;;;;;;7521841;19;19922;-76
2023/07/14 14:51:46;;;;;;;;;;;29.90;56.40;;;;;;7567922;19;19952;-76
2023/07/14 14:54:18;;;;;;;;;;;29.80;55.80;;;;;;7551592;19;20199;-75
2023/07/14 14:56:52;;;;;;;;;;;29.60;57.60;;;;;;7574322;19;20524;-76
2023/07/14 14:59:25;;;;;;;;;;;29.40;58.70;;;;;;7575735;19;19923;-76
2023/07/14 15:01:57;;;;;;;;;;;29.30;58.60;;;;;;7576866;19;20015;-75
2023/07/14 15:04:31;;;;;;;;;;;29.20;58.00;;;;;;7583673;19;20280;-76
2023/07/14 15:07:03;;;;;;;;;;;29.20;58.60;;;;;;7578789;19;20783;-75
2023/07/14 15:09:36;;;;;;;;;;;29.20;58.40;;;;;;7564751;19;21332;-76